Terminal Aerodrome Forecast
Issued by NWS Paducah, KY

Home | Current Version | Previous Version | Graphics & Text | Print | Product List | Glossary On
Versions: 1 2 3 4 5 6 7 8 9 10 11 12 13 14 15 16 17 18
025
FTUS43 KPAH 031124
TAFEVV
TAF
KEVV 031124Z 0312/0412 32003KT P6SM SCT015 SCT060
     FM031600 32007KT P6SM BKN050
     FM040200 VRB02KT P6SM SCT060=

USA.gov is the U.S. government's official web portal to all federal, state and local government web resources and services.